sensor_id;sensor_type;location;lat;lon;timestamp;P1;durP1;ratioP1;P2;durP2;ratioP2
52184;SDS011;38160;52.876;18.778;2022-11-20T15:36:47;51.47;;;28.57;;
52184;SDS011;38160;52.876;18.778;2022-11-20T15:46:19;52.85;;;31.75;;
52184;SDS011;38160;52.876;18.778;2022-11-20T15:53:08;48.85;;;29.63;;
52184;SDS011;38160;52.876;18.778;2022-11-20T15:56:03;49.23;;;28.95;;
52184;SDS011;38160;52.876;18.778;2022-11-20T15:58:35;54.53;;;31.48;;
52184;SDS011;38160;52.876;18.778;2022-11-20T16:04:46;67.12;;;37.25;;
52184;SDS011;38160;52.876;18.778;2022-11-20T16:08:05;63.00;;;36.60;;
52184;SDS011;38160;52.876;18.778;2022-11-20T16:10:39;65.50;;;38.35;;
52184;SDS011;38160;52.876;18.778;2022-11-20T16:13:11;67.62;;;39.10;;
52184;SDS011;38160;52.876;18.778;2022-11-20T16:16:06;58.15;;;35.13;;
52184;SDS011;38160;52.876;18.778;2022-11-20T16:21:46;60.17;;;34.95;;
52184;SDS011;38160;52.876;18.778;2022-11-20T16:24:18;93.20;;;54.23;;
52184;SDS011;38160;52.876;18.778;2022-11-20T16:26:53;102.32;;;57.50;;
52184;SDS011;38160;52.876;18.778;2022-11-20T16:29:27;84.58;;;49.60;;
52184;SDS011;38160;52.876;18.778;2022-11-20T16:31:59;67.40;;;40.25;;
52184;SDS011;38160;52.876;18.778;2022-11-20T16:35:08;59.27;;;36.03;;
52184;SDS011;38160;52.876;18.778;2022-11-20T16:37:40;60.05;;;33.40;;
52184;SDS011;38160;52.876;18.778;2022-11-20T16:40:12;55.98;;;31.97;;
52184;SDS011;38160;52.876;18.778;2022-11-20T16:42:44;56.20;;;32.80;;
52184;SDS011;38160;52.876;18.778;2022-11-20T16:45:23;61.02;;;37.93;;
52184;SDS011;38160;52.876;18.778;2022-11-20T16:48:00;61.42;;;36.17;;
52184;SDS011;38160;52.876;18.778;2022-11-20T16:50:55;63.30;;;37.93;;
52184;SDS011;38160;52.876;18.778;2022-11-20T16:53:45;65.65;;;39.58;;
52184;SDS011;38160;52.876;18.778;2022-11-20T16:56:18;60.98;;;36.42;;
52184;SDS011;38160;52.876;18.778;2022-11-20T16:58:53;57.62;;;34.83;;
52184;SDS011;38160;52.876;18.778;2022-11-20T17:01:27;53.13;;;31.73;;
52184;SDS011;38160;52.876;18.778;2022-11-20T17:04:03;60.73;;;32.78;;
52184;SDS011;38160;52.876;18.778;2022-11-20T17:06:38;58.78;;;33.45;;
52184;SDS011;38160;52.876;18.778;2022-11-20T17:09:17;57.75;;;33.83;;
52184;SDS011;38160;52.876;18.778;2022-11-20T17:14:33;87.75;;;44.95;;
52184;SDS011;38160;52.876;18.778;2022-11-20T17:17:06;82.47;;;42.15;;
52184;SDS011;38160;52.876;18.778;2022-11-20T17:22:43;94.03;;;49.45;;
52184;SDS011;38160;52.876;18.778;2022-11-20T17:25:15;86.63;;;45.58;;
52184;SDS011;38160;52.876;18.778;2022-11-20T17:27:47;114.77;;;54.93;;
52184;SDS011;38160;52.876;18.778;2022-11-20T17:30:19;101.53;;;49.27;;
52184;SDS011;38160;52.876;18.778;2022-11-20T17:32:51;82.62;;;45.90;;
52184;SDS011;38160;52.876;18.778;2022-11-20T17:35:22;85.77;;;44.55;;
52184;SDS011;38160;52.876;18.778;2022-11-20T17:37:54;72.67;;;39.10;;
52184;SDS011;38160;52.876;18.778;2022-11-20T17:40:26;72.35;;;39.45;;
52184;SDS011;38160;52.876;18.778;2022-11-20T17:42:57;80.85;;;41.02;;
52184;SDS011;38160;52.876;18.778;2022-11-20T17:45:29;79.37;;;41.80;;
52184;SDS011;38160;52.876;18.778;2022-11-20T17:51:47;74.58;;;38.65;;
52184;SDS011;38160;52.876;18.778;2022-11-20T17:54:19;70.42;;;40.30;;
52184;SDS011;38160;52.876;18.778;2022-11-20T17:56:50;66.07;;;38.75;;
52184;SDS011;38160;52.876;18.778;2022-11-20T17:59:40;70.22;;;38.28;;
52184;SDS011;38160;52.876;18.778;2022-11-20T18:02:12;69.62;;;38.88;;
52184;SDS011;38160;52.876;18.778;2022-11-20T18:04:43;65.52;;;36.90;;
52184;SDS011;38160;52.876;18.778;2022-11-20T18:07:15;63.30;;;36.77;;
52184;SDS011;38160;52.876;18.778;2022-11-20T18:09:46;72.05;;;37.63;;
52184;SDS011;38160;52.876;18.778;2022-11-20T18:12:18;70.03;;;38.58;;
52184;SDS011;38160;52.876;18.778;2022-11-20T18:14:49;67.95;;;38.15;;
52184;SDS011;38160;52.876;18.778;2022-11-20T18:17:21;70.62;;;38.90;;
52184;SDS011;38160;52.876;18.778;2022-11-20T18:19:53;69.03;;;38.23;;
52184;SDS011;38160;52.876;18.778;2022-11-20T18:22:24;61.28;;;37.05;;
52184;SDS011;38160;52.876;18.778;2022-11-20T18:24:56;64.70;;;37.70;;
52184;SDS011;38160;52.876;18.778;2022-11-20T18:27:28;76.60;;;39.67;;
52184;SDS011;38160;52.876;18.778;2022-11-20T18:29:59;63.08;;;36.83;;
52184;SDS011;38160;52.876;18.778;2022-11-20T18:32:35;66.75;;;38.70;;
52184;SDS011;38160;52.876;18.778;2022-11-20T18:35:08;68.60;;;39.03;;
52184;SDS011;38160;52.876;18.778;2022-11-20T18:44:23;67.72;;;38.02;;
52184;SDS011;38160;52.876;18.778;2022-11-20T18:47:12;69.75;;;39.88;;
52184;SDS011;38160;52.876;18.778;2022-11-20T18:49:48;69.37;;;37.75;;
52184;SDS011;38160;52.876;18.778;2022-11-20T19:05:35;84.95;;;41.98;;
52184;SDS011;38160;52.876;18.778;2022-11-20T19:08:08;81.08;;;42.70;;
52184;SDS011;38160;52.876;18.778;2022-11-20T19:10:39;86.42;;;44.63;;
52184;SDS011;38160;52.876;18.778;2022-11-20T19:13:11;86.28;;;44.77;;
52184;SDS011;38160;52.876;18.778;2022-11-20T19:15:47;121.53;;;59.38;;
52184;SDS011;38160;52.876;18.778;2022-11-20T19:18:19;94.77;;;50.33;;
52184;SDS011;38160;52.876;18.778;2022-11-20T19:20:50;147.60;;;76.75;;
52184;SDS011;38160;52.876;18.778;2022-11-20T19:23:22;99.90;;;54.13;;
52184;SDS011;38160;52.876;18.778;2022-11-20T19:25:57;86.87;;;45.75;;
52184;SDS011;38160;52.876;18.778;2022-11-20T19:28:30;82.80;;;46.45;;
52184;SDS011;38160;52.876;18.778;2022-11-20T19:31:08;76.57;;;44.35;;
52184;SDS011;38160;52.876;18.778;2022-11-20T19:33:38;88.80;;;47.80;;
52184;SDS011;38160;52.876;18.778;2022-11-20T19:36:11;86.10;;;50.25;;
52184;SDS011;38160;52.876;18.778;2022-11-20T19:38:49;83.25;;;47.00;;
52184;SDS011;38160;52.876;18.778;2022-11-20T19:41:24;86.22;;;47.70;;
52184;SDS011;38160;52.876;18.778;2022-11-20T19:44:02;82.85;;;44.45;;
52184;SDS011;38160;52.876;18.778;2022-11-20T19:46:43;80.75;;;44.00;;
52184;SDS011;38160;52.876;18.778;2022-11-20T19:49:15;92.02;;;58.13;;
52184;SDS011;38160;52.876;18.778;2022-11-20T19:51:48;82.60;;;46.40;;
52184;SDS011;38160;52.876;18.778;2022-11-20T19:57:38;95.62;;;56.08;;
52184;SDS011;38160;52.876;18.778;2022-11-20T20:00:10;79.82;;;44.18;;
52184;SDS011;38160;52.876;18.778;2022-11-20T20:02:44;77.82;;;45.75;;
52184;SDS011;38160;52.876;18.778;2022-11-20T20:05:15;86.95;;;51.75;;
52184;SDS011;38160;52.876;18.778;2022-11-20T20:07:50;84.72;;;46.50;;
52184;SDS011;38160;52.876;18.778;2022-11-20T20:13:28;81.37;;;43.40;;
52184;SDS011;38160;52.876;18.778;2022-11-20T20:16:00;83.75;;;45.70;;
52184;SDS011;38160;52.876;18.778;2022-11-20T20:18:32;80.75;;;44.35;;
52184;SDS011;38160;52.876;18.778;2022-11-20T20:21:10;80.07;;;44.30;;
52184;SDS011;38160;52.876;18.778;2022-11-20T20:23:56;78.45;;;44.42;;
52184;SDS011;38160;52.876;18.778;2022-11-20T20:26:30;75.12;;;42.17;;
52184;SDS011;38160;52.876;18.778;2022-11-20T20:29:02;76.60;;;42.73;;
52184;SDS011;38160;52.876;18.778;2022-11-20T20:31:34;74.72;;;42.50;;
52184;SDS011;38160;52.876;18.778;2022-11-20T20:34:06;78.62;;;43.08;;
52184;SDS011;38160;52.876;18.778;2022-11-20T20:36:39;77.60;;;43.42;;
52184;SDS011;38160;52.876;18.778;2022-11-20T20:41:50;83.50;;;46.37;;
52184;SDS011;38160;52.876;18.778;2022-11-20T20:44:21;79.50;;;43.35;;
52184;SDS011;38160;52.876;18.778;2022-11-20T20:47:11;82.90;;;46.92;;
52184;SDS011;38160;52.876;18.778;2022-11-20T20:49:43;88.92;;;47.33;;
52184;SDS011;38160;52.876;18.778;2022-11-20T20:52:24;85.65;;;47.35;;
52184;SDS011;38160;52.876;18.778;2022-11-20T20:55:01;84.15;;;45.80;;
52184;SDS011;38160;52.876;18.778;2022-11-20T21:00:38;91.37;;;48.23;;
52184;SDS011;38160;52.876;18.778;2022-11-20T21:03:15;78.78;;;42.35;;
52184;SDS011;38160;52.876;18.778;2022-11-20T21:08:52;86.30;;;47.53;;
52184;SDS011;38160;52.876;18.778;2022-11-20T21:11:38;98.92;;;55.23;;
52184;SDS011;38160;52.876;18.778;2022-11-20T21:17:41;93.22;;;51.10;;
52184;SDS011;38160;52.876;18.778;2022-11-20T21:26:53;91.55;;;48.98;;
52184;SDS011;38160;52.876;18.778;2022-11-20T21:29:31;107.37;;;53.95;;
52184;SDS011;38160;52.876;18.778;2022-11-20T21:32:23;106.83;;;56.15;;
52184;SDS011;38160;52.876;18.778;2022-11-20T21:34:58;90.90;;;50.10;;
52184;SDS011;38160;52.876;18.778;2022-11-20T21:47:08;133.75;;;63.02;;
52184;SDS011;38160;52.876;18.778;2022-11-20T21:49:40;124.53;;;61.42;;
52184;SDS011;38160;52.876;18.778;2022-11-20T21:58:49;122.13;;;60.95;;
52184;SDS011;38160;52.876;18.778;2022-11-20T22:01:24;105.33;;;56.03;;
52184;SDS011;38160;52.876;18.778;2022-11-20T22:03:59;118.55;;;58.83;;
52184;SDS011;38160;52.876;18.778;2022-11-20T22:06:55;117.80;;;56.60;;
52184;SDS011;38160;52.876;18.778;2022-11-20T22:09:29;114.08;;;59.88;;
52184;SDS011;38160;52.876;18.778;2022-11-20T22:15:16;113.60;;;58.23;;
52184;SDS011;38160;52.876;18.778;2022-11-20T22:46:14;95.30;;;53.28;;
52184;SDS011;38160;52.876;18.778;2022-11-20T22:51:24;94.42;;;51.10;;
52184;SDS011;38160;52.876;18.778;2022-11-20T22:53:59;100.92;;;55.45;;
52184;SDS011;38160;52.876;18.778;2022-11-20T22:56:33;103.22;;;52.78;;
52184;SDS011;38160;52.876;18.778;2022-11-20T22:59:05;100.02;;;54.65;;
52184;SDS011;38160;52.876;18.778;2022-11-20T23:01:36;104.80;;;53.42;;
52184;SDS011;38160;52.876;18.778;2022-11-20T23:04:09;95.90;;;51.77;;
52184;SDS011;38160;52.876;18.778;2022-11-20T23:06:41;99.05;;;53.98;;
52184;SDS011;38160;52.876;18.778;2022-11-20T23:09:12;101.62;;;55.50;;
52184;SDS011;38160;52.876;18.778;2022-11-20T23:11:44;107.40;;;56.55;;
52184;SDS011;38160;52.876;18.778;2022-11-20T23:14:16;101.55;;;55.52;;
52184;SDS011;38160;52.876;18.778;2022-11-20T23:16:47;103.65;;;56.02;;
52184;SDS011;38160;52.876;18.778;2022-11-20T23:19:19;114.75;;;59.73;;
52184;SDS011;38160;52.876;18.778;2022-11-20T23:21:53;106.27;;;56.45;;
52184;SDS011;38160;52.876;18.778;2022-11-20T23:24:24;110.78;;;56.70;;
52184;SDS011;38160;52.876;18.778;2022-11-20T23:26:56;112.92;;;56.65;;
52184;SDS011;38160;52.876;18.778;2022-11-20T23:29:27;108.67;;;57.95;;
52184;SDS011;38160;52.876;18.778;2022-11-20T23:31:59;111.47;;;58.08;;
52184;SDS011;38160;52.876;18.778;2022-11-20T23:34:31;104.15;;;55.70;;
52184;SDS011;38160;52.876;18.778;2022-11-20T23:37:02;109.03;;;58.13;;
52184;SDS011;38160;52.876;18.778;2022-11-20T23:39:34;119.05;;;58.35;;
52184;SDS011;38160;52.876;18.778;2022-11-20T23:42:05;116.73;;;58.83;;
52184;SDS011;38160;52.876;18.778;2022-11-20T23:44:37;112.22;;;58.35;;
52184;SDS011;38160;52.876;18.778;2022-11-20T23:47:09;110.57;;;57.80;;
52184;SDS011;38160;52.876;18.778;2022-11-20T23:49:40;110.55;;;57.03;;
52184;SDS011;38160;52.876;18.778;2022-11-20T23:52:12;112.92;;;56.98;;
52184;SDS011;38160;52.876;18.778;2022-11-20T23:54:43;112.68;;;56.88;;
52184;SDS011;38160;52.876;18.778;2022-11-20T23:57:15;119.80;;;61.68;;
52184;SDS011;38160;52.876;18.778;2022-11-20T23:59:46;111.77;;;58.50;;
